Time;durP1;ratioP1;P1;durP2;ratioP2;P2;SDS_P1;SDS_P2;PMS_P1;PMS_P2;Temp;Humidity;BMP_temperature;BMP_pressure;BME280_temperature;BME280_humidity;BME280_pressure;Samples;Min_cycle;Max_cycle;Signal;HPM_P1;HPM_P2
2022/04/22 00:01:28;;;;;;;16.65;6.20;;;10.90;99.90;;;;;;4960307;28;20404;-79
2022/04/22 00:03:54;;;;;;;13.23;6.57;;;10.50;99.90;;;;;;4988072;28;20171;-79
2022/04/22 00:06:20;;;;;;;18.15;6.80;;;10.40;99.90;;;;;;4935007;28;20050;-79
2022/04/22 00:08:46;;;;;;;14.38;6.45;;;10.40;99.90;;;;;;4968116;28;20035;-79
2022/04/22 00:11:30;;;;;;;14.32;7.18;;;10.40;99.90;;;;;;4929358;29;20522;-78
2022/04/22 00:13:58;;;;;;;14.98;6.32;;;10.30;99.90;;;;;;4965147;28;20051;-79
2022/04/22 00:16:27;;;;;;;15.77;6.35;;;10.30;99.90;;;;;;4950293;29;20043;-78
2022/04/22 00:18:57;;;;;;;17.63;6.45;;;10.30;99.90;;;;;;4942956;29;20055;-79
2022/04/22 00:21:23;;;;;;;14.48;6.75;;;10.30;99.90;;;;;;4939232;29;20511;-79
2022/04/22 00:23:50;;;;;;;16.90;6.85;;;10.20;99.90;;;;;;4949709;28;20133;-80
2022/04/22 00:26:17;;;;;;;16.63;6.90;;;10.20;99.90;;;;;;4932434;28;20489;-79
2022/04/22 00:28:43;;;;;;;16.52;7.07;;;10.20;99.90;;;;;;4966593;28;20051;-79
2022/04/22 00:31:08;;;;;;;18.77;7.50;;;10.10;99.90;;;;;;4931651;29;20039;-80
2022/04/22 00:33:34;;;;;;;13.35;6.72;;;10.10;99.90;;;;;;4948200;28;20053;-79
2022/04/22 00:36:00;;;;;;;15.38;6.50;;;10.10;99.90;;;;;;4947839;28;20118;-79
2022/04/22 00:38:26;;;;;;;15.10;6.13;;;10.00;99.90;;;;;;4951291;28;20039;-79
2022/04/22 00:40:56;;;;;;;14.57;7.20;;;10.10;99.90;;;;;;4954488;28;20677;-80
2022/04/22 00:43:26;;;;;;;15.65;6.80;;;10.00;99.90;;;;;;4939929;29;20051;-79
2022/04/22 00:45:54;;;;;;;15.82;7.00;;;9.90;99.90;;;;;;4947779;28;20397;-79
2022/04/22 00:48:20;;;;;;;14.82;7.13;;;10.00;99.90;;;;;;4930370;29;20091;-79
2022/04/22 00:50:46;;;;;;;13.05;6.85;;;9.90;99.90;;;;;;4947754;28;20058;-79
2022/04/22 00:53:13;;;;;;;16.10;8.32;;;9.90;99.90;;;;;;4928992;28;20450;-79
2022/04/22 00:55:42;;;;;;;17.00;6.75;;;9.90;99.90;;;;;;4950918;28;20042;-79
2022/04/22 00:58:08;;;;;;;16.52;6.57;;;9.80;99.90;;;;;;4964354;28;20043;-79
2022/04/22 01:00:35;;;;;;;12.73;6.65;;;9.70;99.90;;;;;;4932202;29;20043;-79
2022/04/22 01:03:01;;;;;;;14.02;6.78;;;9.60;99.90;;;;;;4948382;28;20110;-79
2022/04/22 01:11:00;;;;;;;15.48;7.25;;;9.40;99.90;;;;;;4952494;28;20392;-77
2022/04/22 01:13:26;;;;;;;15.77;6.97;;;9.30;99.90;;;;;;4951627;28;20458;-78
2022/04/22 01:15:51;;;;;;;14.32;7.05;;;9.30;99.90;;;;;;4950848;28;20043;-78
2022/04/22 01:18:18;;;;;;;15.15;6.57;;;9.10;99.90;;;;;;4950251;28;20078;-77
2022/04/22 01:20:44;;;;;;;15.35;6.60;;;9.10;99.90;;;;;;4935050;28;20081;-78
2022/04/22 01:23:10;;;;;;;11.10;6.55;;;9.10;99.90;;;;;;4933781;28;20505;-78
2022/04/22 01:25:36;;;;;;;18.15;7.13;;;9.00;99.90;;;;;;4964847;28;20069;-78
2022/04/22 01:28:02;;;;;;;12.60;7.28;;;8.90;99.90;;;;;;4933643;28;20073;-78
2022/04/22 01:30:29;;;;;;;14.60;6.97;;;8.90;99.90;;;;;;4935081;28;20089;-79
2022/04/22 01:32:56;;;;;;;12.98;6.45;;;8.90;99.90;;;;;;4967370;28;20054;-79
2022/04/22 01:35:24;;;;;;;13.98;6.57;;;9.00;99.90;;;;;;4950928;28;20055;-78
2022/04/22 01:37:50;;;;;;;12.90;6.47;;;9.20;99.90;;;;;;4953404;28;20078;-78
2022/04/22 01:40:16;;;;;;;12.93;6.68;;;8.80;99.90;;;;;;4953411;28;20082;-78
2022/04/22 01:42:42;;;;;;;15.50;6.85;;;8.70;99.90;;;;;;4987949;28;20046;-78
2022/04/22 01:45:08;;;;;;;15.93;6.57;;;8.70;99.90;;;;;;4931440;28;20077;-78
2022/04/22 01:47:34;;;;;;;17.55;6.80;;;8.60;99.90;;;;;;4950025;28;20038;-76
2022/04/22 01:50:01;;;;;;;14.07;7.40;;;8.60;99.90;;;;;;4955461;28;20047;-77
2022/04/22 01:52:27;;;;;;;11.60;6.63;;;8.60;99.90;;;;;;4976696;28;20054;-76
2022/04/22 01:54:55;;;;;;;18.40;6.65;;;8.50;99.90;;;;;;4959436;28;20042;-78
2022/04/22 01:57:21;;;;;;;18.23;7.68;;;8.50;99.90;;;;;;4939085;28;20034;-76
2022/04/22 01:59:48;;;;;;;14.02;6.82;;;8.40;99.90;;;;;;4965830;28;20038;-79
2022/04/22 02:02:17;;;;;;;16.30;6.35;;;8.30;99.90;;;;;;4932083;28;20145;-78
2022/04/22 02:04:44;;;;;;;14.82;7.07;;;8.30;99.90;;;;;;4968373;28;20114;-78
2022/04/22 02:07:10;;;;;;;17.58;6.90;;;8.20;99.90;;;;;;4952774;28;20051;-78
2022/04/22 02:09:36;;;;;;;15.30;7.80;;;8.70;99.90;;;;;;4950180;28;20592;-79
2022/04/22 02:12:04;;;;;;;18.48;7.57;;;8.20;99.90;;;;;;4952306;28;20058;-78
2022/04/22 02:14:30;;;;;;;13.98;7.95;;;8.20;99.90;;;;;;4970840;28;20054;-79
2022/04/22 02:16:56;;;;;;;14.00;6.47;;;8.10;99.90;;;;;;4949892;28;20041;-78
2022/04/22 02:19:21;;;;;;;14.60;6.75;;;8.10;99.90;;;;;;4949619;28;20047;-78
2022/04/22 02:21:49;;;;;;;13.98;6.70;;;8.10;99.90;;;;;;4949764;28;20069;-79
2022/04/22 02:24:15;;;;;;;15.60;7.22;;;8.10;99.90;;;;;;4947748;28;20058;-79
2022/04/22 02:29:28;;;;;;;14.88;6.30;;;8.00;99.90;;;;;;4951162;28;20570;-79
2022/04/22 02:31:54;;;;;;;17.00;6.00;;;7.90;99.90;;;;;;4965571;28;20043;-79
2022/04/22 02:34:20;;;;;;;11.68;5.82;;;7.90;99.90;;;;;;4949791;28;20042;-79
2022/04/22 02:36:47;;;;;;;16.92;7.55;;;7.90;99.90;;;;;;4947559;28;20495;-79
2022/04/22 02:39:12;;;;;;;15.32;6.63;;;7.80;99.90;;;;;;4966649;28;20081;-78
2022/04/22 02:47:07;;;;;;;13.45;5.90;;;7.70;99.90;;;;;;4948307;28;20693;-79
2022/04/22 02:49:33;;;;;;;11.68;6.05;;;7.70;99.90;;;;;;4965441;28;20049;-78
2022/04/22 02:51:59;;;;;;;14.40;6.38;;;7.70;99.90;;;;;;4953300;28;20085;-79
2022/04/22 02:54:25;;;;;;;13.27;6.28;;;7.70;99.90;;;;;;4954455;28;20053;-77
2022/04/22 02:56:55;;;;;;;11.00;6.10;;;7.70;99.90;;;;;;4941562;28;20053;-78
2022/04/22 02:59:25;;;;;;;16.88;6.75;;;7.60;99.90;;;;;;4955261;28;20386;-78
2022/04/22 03:01:50;;;;;;;15.45;6.78;;;7.60;99.90;;;;;;4969308;28;20030;-78
2022/04/22 03:04:16;;;;;;;14.07;6.88;;;7.80;99.90;;;;;;4967873;28;20451;-78
2022/04/22 03:06:42;;;;;;;11.73;6.57;;;7.60;99.90;;;;;;4967299;28;20855;-78
2022/04/22 03:09:07;;;;;;;14.43;6.38;;;7.50;99.90;;;;;;4953555;28;20039;-78
2022/04/22 03:11:34;;;;;;;12.63;6.20;;;7.60;99.90;;;;;;4954508;28;20563;-79
2022/04/22 03:14:03;;;;;;;13.68;6.53;;;7.60;99.90;;;;;;4967025;28;20066;-78
2022/04/22 03:16:29;;;;;;;11.20;5.75;;;7.60;99.90;;;;;;4935776;28;20108;-78
2022/04/22 03:18:55;;;;;;;16.08;6.10;;;7.80;99.90;;;;;;4955312;28;20121;-78
2022/04/22 03:21:22;;;;;;;12.25;6.15;;;7.60;99.90;;;;;;4952221;28;20468;-81
2022/04/22 03:23:48;;;;;;;12.43;5.40;;;7.60;99.90;;;;;;4936423;28;20046;-80
2022/04/22 03:26:14;;;;;;;16.80;6.20;;;7.50;99.90;;;;;;4972322;28;20031;-79
2022/04/22 03:28:40;;;;;;;11.82;5.60;;;8.00;99.90;;;;;;4969794;28;20575;-79
2022/04/22 03:31:05;;;;;;;16.25;5.70;;;7.60;99.90;;;;;;4973490;28;20035;-79
2022/04/22 03:33:31;;;;;;;11.73;6.15;;;7.50;99.90;;;;;;4935906;28;20475;-79
2022/04/22 03:35:57;;;;;;;14.32;5.35;;;7.50;99.90;;;;;;4952507;28;20566;-78
2022/04/22 03:38:23;;;;;;;12.88;5.50;;;7.60;99.90;;;;;;4963997;28;20117;-79
2022/04/22 03:40:51;;;;;;;13.77;5.40;;;7.60;99.90;;;;;;4955516;28;20058;-79
2022/04/22 03:43:18;;;;;;;10.93;5.75;;;7.50;99.90;;;;;;4939131;28;20094;-78
2022/04/22 03:45:43;;;;;;;11.85;5.55;;;7.50;99.90;;;;;;4940603;28;20110;-79
2022/04/22 03:48:10;;;;;;;15.82;5.25;;;7.50;99.90;;;;;;4970490;28;20039;-79
2022/04/22 03:50:37;;;;;;;13.52;5.78;;;7.50;99.90;;;;;;4953592;28;20049;-78
2022/04/22 03:53:04;;;;;;;13.90;6.15;;;7.50;99.90;;;;;;4953117;28;20070;-80
2022/04/22 03:55:30;;;;;;;15.30;5.90;;;7.50;99.90;;;;;;4952367;28;20046;-79
2022/04/22 03:58:10;;;;;;;14.45;5.43;;;7.50;99.90;;;;;;4972094;28;20046;-77
2022/04/22 04:00:56;;;;;;;11.93;5.15;;;7.40;99.90;;;;;;4951472;28;20101;-78
2022/04/22 04:03:26;;;;;;;11.93;5.57;;;7.40;99.90;;;;;;4951760;28;20703;-78
2022/04/22 04:05:52;;;;;;;15.68;6.20;;;7.40;99.90;;;;;;4938579;28;20054;-78
2022/04/22 04:08:21;;;;;;;12.25;5.82;;;7.40;99.90;;;;;;4953404;28;20038;-78
2022/04/22 04:16:28;;;;;;;11.88;6.07;;;7.20;99.90;;;;;;4936465;28;20050;-78
2022/04/22 04:23:14;;;;;;;13.75;6.00;;;7.10;99.90;;;;;;4951173;28;20035;-77
2022/04/22 04:24:24;;;;;;;13.73;6.18;;;7.10;99.90;;;;;;4969886;28;20046;-78
2022/04/22 04:26:49;;;;;;;15.10;6.63;;;7.60;99.90;;;;;;4970077;28;20117;-77
2022/04/22 04:29:16;;;;;;;13.30;6.07;;;7.00;99.90;;;;;;4955189;28;20491;-77
2022/04/22 04:31:41;;;;;;;10.65;5.78;;;7.00;99.90;;;;;;4968305;28;20547;-78
2022/04/22 04:34:07;;;;;;;11.82;6.22;;;6.90;99.90;;;;;;4973273;28;20117;-78
2022/04/22 04:36:32;;;;;;;12.30;5.90;;;7.00;99.90;;;;;;4953289;28;20057;-78
2022/04/22 04:38:58;;;;;;;8.80;5.25;;;7.00;99.90;;;;;;4953420;28;20043;-77
2022/04/22 04:41:24;;;;;;;17.88;6.28;;;7.00;99.90;;;;;;4944414;28;20608;-78
2022/04/22 04:43:51;;;;;;;12.90;6.30;;;7.00;99.90;;;;;;4961405;28;20058;-77
2022/04/22 04:46:17;;;;;;;10.55;5.65;;;7.00;99.90;;;;;;4956185;28;20401;-78
2022/04/22 04:48:45;;;;;;;15.23;6.20;;;7.00;99.90;;;;;;4973844;28;20688;-78
2022/04/22 04:51:11;;;;;;;11.48;5.78;;;7.00;99.90;;;;;;4939975;28;20062;-78
2022/04/22 04:53:36;;;;;;;14.13;5.70;;;7.00;99.90;;;;;;4978510;28;20077;-78
2022/04/22 04:56:02;;;;;;;13.45;5.70;;;7.00;99.90;;;;;;4958179;28;20046;-77
2022/04/22 04:58:28;;;;;;;14.55;7.13;;;7.00;99.90;;;;;;4952879;28;20050;-78
2022/04/22 05:00:54;;;;;;;11.23;5.65;;;7.00;99.90;;;;;;4970070;28;20069;-77
2022/04/22 05:03:19;;;;;;;11.00;6.20;;;7.00;99.90;;;;;;4965433;28;20197;-78
2022/04/22 05:05:45;;;;;;;14.52;5.80;;;7.00;99.90;;;;;;4963769;28;20385;-77
2022/04/22 05:08:11;;;;;;;12.63;6.30;;;7.00;99.90;;;;;;4958493;28;20094;-78
2022/04/22 05:10:36;;;;;;;11.77;5.72;;;7.20;99.90;;;;;;4928407;28;20487;-78
2022/04/22 05:13:04;;;;;;;10.68;5.05;;;7.70;99.90;;;;;;4943819;28;20379;-76
2022/04/22 05:15:33;;;;;;;13.77;5.60;;;8.50;99.90;;;;;;4961221;28;20038;-77
2022/04/22 05:18:02;;;;;;;10.82;4.93;;;9.70;99.90;;;;;;4943558;28;20047;-77
2022/04/22 05:20:28;;;;;;;12.48;4.72;;;10.70;99.90;;;;;;4964139;28;20420;-78
2022/04/22 05:22:55;;;;;;;11.23;4.30;;;11.60;99.90;;;;;;4924487;28;20553;-78
2022/04/22 05:25:25;;;;;;;8.63;3.63;;;12.50;99.90;;;;;;4956598;28;20057;-78
2022/04/22 05:27:51;;;;;;;9.15;4.00;;;13.40;99.90;;;;;;4933795;28;20054;-78
2022/04/22 05:33:03;;;;;;;10.95;3.85;;;13.90;99.90;;;;;;4942043;28;20114;-77
2022/04/22 05:35:29;;;;;;;8.77;4.20;;;14.40;99.90;;;;;;4939428;28;20030;-78
2022/04/22 05:37:57;;;;;;;11.02;4.32;;;14.60;99.90;;;;;;4959216;28;20046;-78
2022/04/22 05:40:26;;;;;;;11.60;3.90;;;14.60;99.90;;;;;;4966049;28;20077;-78
2022/04/22 05:42:53;;;;;;;8.10;3.60;;;13.80;99.90;;;;;;4951670;28;20085;-78
2022/04/22 05:45:21;;;;;;;7.53;3.13;;;13.30;99.90;;;;;;4959672;28;20530;-78
2022/04/22 05:47:47;;;;;;;8.75;3.13;;;12.70;99.90;;;;;;4963520;28;20399;-78
2022/04/22 05:50:15;;;;;;;7.40;3.67;;;12.20;99.90;;;;;;4948192;28;20047;-79
2022/04/22 05:52:42;;;;;;;9.82;3.40;;;11.60;99.90;;;;;;4979507;28;20038;-78
2022/04/22 05:55:11;;;;;;;7.07;3.33;;;11.50;99.90;;;;;;4932395;28;20239;-78
2022/04/22 05:57:37;;;;;;;8.65;3.30;;;11.60;99.90;;;;;;4979060;28;20045;-78
2022/04/22 06:00:14;;;;;;;5.95;3.20;;;11.40;99.90;;;;;;4930541;28;20230;-78
2022/04/22 06:02:41;;;;;;;10.98;3.30;;;11.20;99.90;;;;;;4944062;28;20034;-78
2022/04/22 06:05:09;;;;;;;9.90;3.60;;;11.20;99.90;;;;;;4937880;28;20046;-79
2022/04/22 06:07:35;;;;;;;8.68;3.15;;;10.90;99.90;;;;;;4955089;28;20051;-78
2022/04/22 06:12:47;;;;;;;7.00;3.00;;;10.60;99.90;;;;;;4968542;28;20051;-80
2022/04/22 06:15:13;;;;;;;6.53;2.85;;;10.90;99.90;;;;;;4954076;28;20187;-79
2022/04/22 06:17:39;;;;;;;7.68;3.05;;;10.50;99.90;;;;;;4953252;28;20135;-78
2022/04/22 06:20:05;;;;;;;8.90;3.17;;;10.50;99.90;;;;;;4949285;28;20500;-83
2022/04/22 06:22:31;;;;;;;12.13;3.05;;;10.30;99.90;;;;;;4959341;28;20043;-82
2022/04/22 06:24:57;;;;;;;9.73;3.10;;;10.30;99.90;;;;;;4951100;28;20044;-83
2022/04/22 06:27:28;;;;;;;8.98;2.85;;;11.10;99.90;;;;;;4944279;28;20134;-84
2022/04/22 06:29:56;;;;;;;7.03;2.70;;;11.10;99.90;;;;;;4959467;28;20039;-83
2022/04/22 06:32:23;;;;;;;8.23;2.70;;;11.90;99.90;;;;;;4950823;28;20039;-85
2022/04/22 06:34:55;;;;;;;7.28;2.85;;;12.20;99.90;;;;;;4945625;28;20463;-84
2022/04/22 06:37:21;;;;;;;5.35;2.50;;;12.50;99.90;;;;;;4953992;28;20066;-84
2022/04/22 06:45:47;;;;;;;8.93;2.35;;;14.90;99.90;;;;;;4907570;28;20165;-86
2022/04/22 06:48:14;;;;;;;5.38;2.25;;;15.10;99.90;;;;;;4945521;28;20104;-85
2022/04/22 06:50:44;;;;;;;5.88;2.33;;;15.10;99.90;;;;;;4958808;28;20050;-84
2022/04/22 06:53:14;;;;;;;6.53;2.45;;;14.80;99.90;;;;;;4952229;28;20047;-85
2022/04/22 06:55:40;;;;;;;5.15;2.10;;;14.70;99.90;;;;;;4952680;28;20055;-85
2022/04/22 06:58:11;;;;;;;8.32;2.53;;;14.90;99.90;;;;;;4954597;28;20047;-85
2022/04/22 07:00:37;;;;;;;7.40;2.70;;;14.70;99.90;;;;;;4952354;28;20039;-86
2022/04/22 07:03:04;;;;;;;6.70;2.47;;;14.60;99.90;;;;;;4955372;28;20079;-84
2022/04/22 07:05:32;;;;;;;7.43;2.90;;;14.60;99.90;;;;;;4962888;28;20050;-85
2022/04/22 07:07:59;;;;;;;7.53;3.10;;;14.80;99.90;;;;;;4950111;28;20081;-86
2022/04/22 07:10:25;;;;;;;7.60;2.72;;;14.80;99.90;;;;;;4950640;28;20464;-83
2022/04/22 07:12:53;;;;;;;10.77;2.47;;;14.80;99.90;;;;;;4948310;28;20133;-84
2022/04/22 07:15:19;;;;;;;8.50;2.90;;;14.70;99.90;;;;;;4953957;28;20055;-84
2022/04/22 07:17:45;;;;;;;6.25;2.50;;;14.20;99.90;;;;;;4959189;28;20069;-84
2022/04/22 07:20:11;;;;;;;7.10;2.67;;;13.80;99.90;;;;;;4937810;28;20117;-84
2022/04/22 07:22:38;;;;;;;6.47;2.65;;;13.40;99.90;;;;;;4975251;28;20062;-84
2022/04/22 07:25:08;;;;;;;6.15;2.80;;;13.20;99.90;;;;;;4938872;28;20181;-85
2022/04/22 07:27:36;;;;;;;10.20;2.22;;;13.10;99.90;;;;;;4966238;28;20069;-84
2022/04/22 07:30:10;;;;;;;6.38;2.20;;;12.90;99.90;;;;;;4950235;28;20126;-85
2022/04/22 07:32:37;;;;;;;8.38;2.67;;;13.00;99.90;;;;;;4951357;28;20463;-84
2022/04/22 07:35:08;;;;;;;6.60;2.42;;;13.10;99.90;;;;;;4937637;28;20063;-81
2022/04/22 07:37:35;;;;;;;5.53;2.58;;;13.30;99.90;;;;;;4951158;28;20046;-83
2022/04/22 07:40:02;;;;;;;6.55;2.03;;;13.40;99.90;;;;;;4950501;28;20122;-84
2022/04/22 07:42:29;;;;;;;6.53;2.50;;;13.60;99.90;;;;;;4962869;28;20503;-83
2022/04/22 07:47:46;;;;;;;8.55;2.42;;;13.70;99.90;;;;;;4958831;28;20078;-83
2022/04/22 07:50:18;;;;;;;9.07;2.42;;;13.70;99.90;;;;;;4937783;28;20178;-84
2022/04/22 07:52:45;;;;;;;6.68;2.25;;;13.80;99.90;;;;;;4957044;28;20046;-82
2022/04/22 07:55:13;;;;;;;6.53;2.60;;;14.00;99.90;;;;;;4959818;28;20046;-82
2022/04/22 07:57:40;;;;;;;8.13;2.15;;;14.10;99.90;;;;;;4958225;28;20095;-82
2022/04/22 08:00:10;;;;;;;6.75;2.92;;;14.20;99.90;;;;;;4956474;28;20035;-82
2022/04/22 08:02:40;;;;;;;9.82;2.58;;;14.20;99.90;;;;;;4936470;29;20055;-83
2022/04/22 08:05:11;;;;;;;6.53;2.53;;;14.20;99.90;;;;;;4955465;28;20051;-82
2022/04/22 08:07:37;;;;;;;6.57;2.75;;;14.20;99.90;;;;;;4961142;28;20056;-82
2022/04/22 08:10:02;;;;;;;6.93;2.42;;;14.20;99.90;;;;;;4954069;28;20089;-82
2022/04/22 08:12:28;;;;;;;5.43;2.42;;;14.30;99.90;;;;;;4928500;29;20079;-82
2022/04/22 08:14:54;;;;;;;7.13;2.67;;;14.50;99.90;;;;;;4937031;29;20051;-83
2022/04/22 08:17:20;;;;;;;9.25;2.75;;;14.50;99.90;;;;;;4936392;29;20101;-82
2022/04/22 08:19:46;;;;;;;8.10;2.47;;;14.50;99.90;;;;;;4937672;29;20043;-82
2022/04/22 08:22:12;;;;;;;9.95;2.25;;;14.50;99.90;;;;;;4916595;29;20315;-83
2022/04/22 08:24:38;;;;;;;8.63;2.58;;;14.60;99.90;;;;;;4927783;29;20044;-83
2022/04/22 08:27:06;;;;;;;7.55;2.40;;;14.70;99.90;;;;;;4917432;29;20665;-82
2022/04/22 08:29:31;;;;;;;7.63;2.58;;;14.80;99.90;;;;;;4915410;29;20185;-83
2022/04/22 08:31:57;;;;;;;5.70;1.95;;;14.70;99.90;;;;;;4920796;29;21741;-87
2022/04/22 08:34:23;;;;;;;6.32;2.30;;;14.90;99.90;;;;;;4921451;29;20047;-81
2022/04/22 08:36:48;;;;;;;7.25;2.35;;;15.10;99.90;;;;;;4924441;29;20571;-84
2022/04/22 08:39:16;;;;;;;6.78;2.33;;;15.10;99.90;;;;;;4926110;29;20051;-85
2022/04/22 08:41:41;;;;;;;6.88;2.30;;;15.30;99.90;;;;;;4930499;29;20149;-87
2022/04/22 08:44:11;;;;;;;7.20;2.35;;;15.40;99.90;;;;;;4919843;29;20146;-81
2022/04/22 08:52:10;;;;;;;9.52;2.70;;;15.20;99.90;;;;;;4925562;29;20051;-80
2022/04/22 08:54:38;;;;;;;8.32;2.65;;;15.10;99.90;;;;;;4910816;29;20048;-78
2022/04/22 08:57:03;;;;;;;9.70;2.53;;;15.10;99.90;;;;;;4929125;29;20715;-79
2022/04/22 08:59:29;;;;;;;6.13;2.58;;;15.30;99.90;;;;;;4917990;29;20047;-79
2022/04/22 09:01:58;;;;;;;5.78;2.63;;;15.50;99.90;;;;;;4927464;29;20761;-76
2022/04/22 09:04:26;;;;;;;5.05;1.92;;;15.70;99.60;;;;;;4928196;29;20553;-76
2022/04/22 09:06:55;;;;;;;8.27;2.58;;;15.60;99.90;;;;;;4940484;29;20035;-78
2022/04/22 09:09:23;;;;;;;7.15;2.33;;;15.70;99.90;;;;;;4933533;29;20043;-92
2022/04/22 09:11:48;;;;;;;7.18;2.33;;;15.90;99.90;;;;;;4922511;29;20058;-88
2022/04/22 09:14:20;;;;;;;7.30;2.22;;;16.00;99.90;;;;;;4916453;29;20044;-80
2022/04/22 09:16:46;;;;;;;7.18;2.45;;;16.20;99.90;;;;;;4938373;29;20062;-81
2022/04/22 09:19:12;;;;;;;8.65;2.55;;;16.20;99.90;;;;;;4928916;29;20051;-78
2022/04/22 09:21:39;;;;;;;6.82;2.10;;;16.20;99.30;;;;;;4929004;29;20094;-81
2022/04/22 09:24:13;;;;;;;10.07;2.63;;;16.30;99.90;;;;;;4935459;29;20115;-81
2022/04/22 09:26:39;;;;;;;4.95;2.45;;;16.40;99.90;;;;;;4946649;28;20044;-83
2022/04/22 09:29:10;;;;;;;6.35;2.03;;;16.60;99.60;;;;;;4913670;29;20058;-77
2022/04/22 09:31:46;;;;;;;11.10;3.33;;;16.40;98.70;;;;;;4926772;29;20047;-80
2022/04/22 09:34:12;;;;;;;8.57;2.70;;;16.40;99.20;;;;;;4948364;28;20465;-79
2022/04/22 09:44:57;;;;;;;6.32;2.63;;;16.60;98.40;;;;;;4932513;29;20138;-79
2022/04/22 09:47:29;;;;;;;7.65;2.40;;;16.50;98.20;;;;;;4910255;29;20424;-81
2022/04/22 09:49:56;;;;;;;7.95;2.33;;;16.40;98.20;;;;;;4928231;29;20055;-80
2022/04/22 09:52:29;;;;;;;6.95;2.55;;;16.30;98.80;;;;;;4935561;28;20043;-80
2022/04/22 09:54:57;;;;;;;6.25;2.50;;;16.30;98.40;;;;;;4922028;29;20240;-79
2022/04/22 09:57:23;;;;;;;5.68;2.35;;;16.30;98.00;;;;;;4924141;29;20382;-86
2022/04/22 09:59:51;;;;;;;5.22;2.70;;;16.30;98.70;;;;;;4907053;29;20043;-77
2022/04/22 10:02:25;;;;;;;5.90;2.35;;;16.50;98.50;;;;;;4923578;29;20058;-79
2022/04/22 10:04:55;;;;;;;8.05;2.75;;;16.40;97.60;;;;;;4922487;29;20049;-77
2022/04/22 10:07:26;;;;;;;5.43;2.20;;;16.50;97.50;;;;;;4910905;29;20044;-84
2022/04/22 10:09:54;;;;;;;6.80;2.35;;;16.50;97.30;;;;;;4927259;29;20114;-77
2022/04/22 10:12:25;;;;;;;9.00;2.30;;;16.60;98.20;;;;;;4936282;28;20059;-81
2022/04/22 10:14:53;;;;;;;6.90;2.50;;;16.90;98.10;;;;;;4968124;28;20063;-85
2022/04/22 10:17:20;;;;;;;8.50;2.53;;;17.30;98.00;;;;;;4969308;28;20079;-82
2022/04/22 10:19:46;;;;;;;6.30;2.65;;;17.10;96.80;;;;;;4965693;29;20082;-81
2022/04/22 10:22:13;;;;;;;6.45;2.22;;;17.10;96.70;;;;;;4955039;28;20444;-83
2022/04/22 10:24:40;;;;;;;6.32;2.22;;;17.00;97.40;;;;;;4958454;28;20070;-87
2022/04/22 10:27:08;;;;;;;8.23;2.75;;;17.10;97.10;;;;;;4968260;28;20085;-82
2022/04/22 10:29:36;;;;;;;8.38;2.85;;;16.90;96.70;;;;;;4942464;28;20043;-83
2022/04/22 10:32:06;;;;;;;11.30;3.17;;;16.80;97.00;;;;;;4952823;28;20038;-84
2022/04/22 10:34:42;;;;;;;8.40;2.30;;;16.90;96.70;;;;;;4953044;28;20076;-83
2022/04/22 10:37:26;;;;;;;8.07;3.25;;;17.20;97.30;;;;;;4937039;28;20055;-86
2022/04/22 10:39:54;;;;;;;5.25;2.40;;;17.10;97.90;;;;;;4955810;28;20527;-85
2022/04/22 10:42:35;;;;;;;6.63;2.90;;;17.20;97.40;;;;;;4959533;28;20130;-83
2022/04/22 10:47:54;;;;;;;8.48;2.97;;;17.20;94.90;;;;;;4946250;29;20113;-84
2022/04/22 10:50:29;;;;;;;6.95;3.28;;;17.20;96.00;;;;;;4937551;28;20043;-83
2022/04/22 10:53:07;;;;;;;6.10;2.63;;;17.30;96.30;;;;;;4943759;28;20075;-82
2022/04/22 10:55:34;;;;;;;6.50;3.08;;;17.30;96.30;;;;;;4959843;28;20416;-85
2022/04/22 10:58:24;;;;;;;9.65;3.60;;;17.40;97.20;;;;;;4955242;28;20047;-83
2022/04/22 11:00:58;;;;;;;7.63;2.90;;;17.50;96.80;;;;;;4932783;28;20047;-84
2022/04/22 11:03:34;;;;;;;6.13;2.80;;;17.70;96.10;;;;;;4939470;28;20059;-83
2022/04/22 11:06:08;;;;;;;6.55;2.78;;;17.80;95.30;;;;;;4939554;28;20055;-83
2022/04/22 11:08:41;;;;;;;6.65;3.00;;;17.60;94.70;;;;;;4947604;28;20055;-83
2022/04/22 11:11:11;;;;;;;7.57;3.08;;;17.60;95.00;;;;;;4960402;28;20122;-82
2022/04/22 11:13:38;;;;;;;7.40;2.95;;;17.60;95.90;;;;;;4934097;29;20043;-83
2022/04/22 11:16:15;;;;;;;8.30;3.03;;;17.50;95.10;;;;;;4947591;29;20061;-83
2022/04/22 11:18:45;;;;;;;5.78;2.92;;;17.50;94.60;;;;;;4946317;29;20055;-84
2022/04/22 11:21:17;;;;;;;9.07;2.80;;;17.50;95.40;;;;;;4949495;29;20046;-87
2022/04/22 11:23:47;;;;;;;7.80;2.95;;;18.00;94.80;;;;;;4941919;29;20202;-79
2022/04/22 11:26:14;;;;;;;8.02;3.00;;;17.60;95.50;;;;;;4941684;28;20914;-85
2022/04/22 11:28:41;;;;;;;8.43;3.53;;;17.80;95.50;;;;;;4952209;29;20043;-84
2022/04/22 11:31:10;;;;;;;7.22;3.28;;;17.90;94.20;;;;;;4940358;29;20047;-92
2022/04/22 11:33:47;;;;;;;9.23;3.20;;;17.80;94.40;;;;;;4940048;29;20039;-89
2022/04/22 11:36:13;;;;;;;10.82;3.08;;;17.90;93.70;;;;;;4970085;28;20449;-82
2022/04/22 11:38:53;;;;;;;9.98;3.22;;;17.90;93.60;;;;;;4951817;29;20130;-87
2022/04/22 11:41:19;;;;;;;8.43;3.42;;;17.80;94.00;;;;;;4938721;29;20035;-81
2022/04/22 11:43:46;;;;;;;10.38;3.15;;;17.80;93.70;;;;;;4947899;28;20051;-85
2022/04/22 11:46:17;;;;;;;7.68;3.20;;;17.70;93.60;;;;;;4947704;29;20110;-83
2022/04/22 11:48:50;;;;;;;;;;;17.70;93.30;;;;;;4940236;29;20051;-82
2022/04/22 11:51:19;;;;;;;11.18;3.60;;;17.70;94.10;;;;;;4951946;28;19922;-86
2022/04/22 11:53:56;;;;;;;9.98;3.30;;;17.80;93.00;;;;;;4963716;28;20054;-79
2022/04/22 11:56:25;;;;;;;7.50;3.53;;;17.90;93.00;;;;;;4946930;28;20138;-80
2022/04/22 11:58:56;;;;;;;8.80;3.33;;;17.90;93.20;;;;;;4948151;28;20062;-80
2022/04/22 12:05:32;;;;;;;7.53;3.60;;;18.00;93.10;;;;;;4952137;28;20400;-81
2022/04/22 12:10:12;;;;;;;9.85;3.60;;;17.90;93.00;;;;;;4966479;28;20055;-82
2022/04/22 12:12:54;;;;;;;7.07;3.03;;;17.90;92.80;;;;;;4968804;28;20142;-78
2022/04/22 12:15:20;;;;;;;7.10;3.13;;;17.80;91.40;;;;;;4944307;28;20061;-79
2022/04/22 12:17:46;;;;;;;8.68;3.72;;;17.80;91.90;;;;;;4957422;28;20050;-78
2022/04/22 12:20:12;;;;;;;7.82;2.83;;;17.80;92.20;;;;;;4943650;28;20492;-75
2022/04/22 12:22:38;;;;;;;8.68;3.63;;;17.80;92.10;;;;;;4938743;28;20519;-75
2022/04/22 12:25:12;;;;;;;11.68;3.10;;;18.30;91.90;;;;;;4988244;28;20039;-76
2022/04/22 12:27:40;;;;;;;10.38;3.40;;;18.10;92.20;;;;;;4960199;28;20407;-77
2022/04/22 12:30:10;;;;;;;6.57;3.30;;;18.20;91.70;;;;;;4955923;28;20058;-76
2022/04/22 12:32:37;;;;;;;7.85;3.40;;;18.30;92.30;;;;;;4969696;28;20287;-81
2022/04/22 12:35:11;;;;;;;7.65;3.60;;;18.30;92.10;;;;;;4933668;28;20050;-78
2022/04/22 12:37:42;;;;;;;6.43;3.13;;;18.30;91.10;;;;;;4947527;28;20051;-76
2022/04/22 12:40:09;;;;;;;14.03;3.30;;;18.20;91.30;;;;;;4955938;28;20089;-78
2022/04/22 12:42:36;;;;;;;10.57;3.63;;;18.20;91.00;;;;;;4964498;28;20506;-80
2022/04/22 12:53:50;;;;;;;7.05;3.75;;;18.30;92.30;;;;;;4944263;28;20043;-76
2022/04/22 12:56:24;;;;;;;9.88;3.80;;;18.40;91.60;;;;;;4955567;28;20058;-79
2022/04/22 12:58:51;;;;;;;8.93;3.80;;;18.60;91.50;;;;;;4953046;28;20384;-78
2022/04/22 13:01:19;;;;;;;8.65;3.83;;;18.40;91.40;;;;;;4940242;28;20055;-77
2022/04/22 13:03:45;;;;;;;9.50;3.38;;;18.30;91.30;;;;;;4964129;28;20050;-77
2022/04/22 13:06:12;;;;;;;9.45;3.85;;;18.20;91.50;;;;;;4961796;28;20054;-76
2022/04/22 13:08:37;;;;;;;7.88;3.97;;;18.10;91.20;;;;;;4971879;28;20147;-78
2022/04/22 13:11:04;;;;;;;11.20;3.70;;;18.10;91.70;;;;;;4948387;28;20508;-80
2022/04/22 13:13:30;;;;;;;9.05;3.92;;;18.10;92.10;;;;;;4931993;28;20094;-76
2022/04/22 13:15:56;;;;;;;8.73;3.85;;;18.00;91.50;;;;;;4960458;28;20344;-76
2022/04/22 13:18:21;;;;;;;8.70;3.85;;;18.00;91.70;;;;;;4942943;28;20058;-78
2022/04/22 13:20:47;;;;;;;9.35;4.00;;;18.10;92.20;;;;;;4963770;28;20046;-78
2022/04/22 13:23:13;;;;;;;11.15;4.45;;;18.10;92.10;;;;;;4943301;28;20096;-80
2022/04/22 13:25:39;;;;;;;9.68;3.90;;;18.10;92.50;;;;;;4955644;28;20043;-76
2022/04/22 13:28:05;;;;;;;8.43;4.10;;;18.20;92.60;;;;;;4945601;28;20053;-77
2022/04/22 13:30:31;;;;;;;8.32;3.80;;;18.30;92.80;;;;;;4941158;28;20047;-76
2022/04/22 13:32:56;;;;;;;10.00;4.20;;;18.40;92.60;;;;;;4964878;28;20065;-80
2022/04/22 13:35:23;;;;;;;11.20;4.20;;;18.60;92.70;;;;;;4931651;28;20081;-77
2022/04/22 13:37:49;;;;;;;8.35;3.97;;;18.50;92.30;;;;;;4927888;28;20116;-77
2022/04/22 13:40:16;;;;;;;8.82;4.60;;;18.50;92.80;;;;;;4974693;28;20061;-78
2022/04/22 13:42:42;;;;;;;9.88;4.05;;;18.50;92.40;;;;;;4971950;28;20134;-78
2022/04/22 13:53:21;;;;;;;8.95;4.68;;;18.10;93.00;;;;;;4964969;28;20046;-78
2022/04/22 13:55:46;;;;;;;9.55;4.13;;;18.10;92.80;;;;;;4955071;28;20047;-81
2022/04/22 13:58:12;;;;;;;7.75;3.80;;;18.00;93.00;;;;;;4968826;28;20089;-80
2022/04/22 14:00:38;;;;;;;9.27;4.38;;;18.20;93.90;;;;;;4946286;28;20050;-78
2022/04/22 14:03:04;;;;;;;11.98;4.32;;;18.40;93.30;;;;;;4918742;28;20054;-79
2022/04/22 14:05:30;;;;;;;11.38;4.45;;;18.50;93.60;;;;;;4969040;28;20039;-76